Philadelphia, Pennsylvania
Traffic Map
Current Weather Conditions
Philadelphia, Pennsylvania
Broken Clouds
Broken Clouds
24°
Feels Like: 17°
Wind Chill: 17° Ceiling: 4500
Heat Index: 24° Visibility: 10mi
Dew Point: 13° Wind: 6mph
Humidity: 62% Direction: 260° (W)
Pressure: 30.26in Gusts: 0mph
Raw Report DataKPHL 010854Z 26005KT 10SM BKN045 BKN250 M04/M11 A3026 RMK AO2 SLP244 T10441106 58004
Traffic Incident Summary
Active as of:
Severity:
Category:
InformationThere was an issue retrieving the traffic information for this location. Please try a different location or try again shortly.
Advertisements
Track Severe Weather on mobile